createdAt,value
2023-01-27T00:02:16.727Z,96359.13
2023-01-27T00:04:45.059Z,96362.97
2023-01-27T00:07:13.284Z,96366.34
2023-01-27T00:09:42.598Z,96366.53
2023-01-27T00:12:38.131Z,96368.72
2023-01-27T00:15:07.617Z,96360.66
2023-01-27T00:17:37.532Z,96353.75
2023-01-27T00:20:07.274Z,96365.25
2023-01-27T00:22:53.123Z,96363.88
2023-01-27T00:25:21.596Z,96369.53
2023-01-27T00:27:49.885Z,96365.03
2023-01-27T00:30:18.512Z,96360.00
2023-01-27T00:33:05.651Z,96360.94
2023-01-27T00:35:34.627Z,96365.50
2023-01-27T00:38:02.908Z,96350.34
2023-01-27T00:40:31.225Z,96356.75
2023-01-27T00:42:59.529Z,96347.09
2023-01-27T00:45:45.511Z,96356.38
2023-01-27T00:48:15.176Z,96342.56
2023-01-27T00:50:43.516Z,96345.88
2023-01-27T00:53:11.829Z,96361.00
2023-01-27T00:55:40.219Z,96359.50
2023-01-27T00:58:08.795Z,96355.00
2023-01-27T01:00:37.067Z,96366.81
2023-01-27T01:03:05.427Z,96357.72
2023-01-27T01:05:35.197Z,96355.03
2023-01-27T01:08:03.560Z,96370.28
2023-01-27T01:10:31.908Z,96372.97
2023-01-27T01:13:00.270Z,96363.00
2023-01-27T01:15:28.498Z,96376.75
2023-01-27T01:17:56.808Z,96368.28
2023-01-27T01:20:25.172Z,96376.81
2023-01-27T01:22:54.872Z,96378.63
2023-01-27T01:25:23.230Z,96375.03
2023-01-27T01:27:51.599Z,96378.75
2023-01-27T01:30:21.524Z,96376.59
2023-01-27T01:32:49.855Z,96364.50
2023-01-27T01:35:18.109Z,96366.13
2023-01-27T01:37:46.447Z,96362.22
2023-01-27T01:40:16.420Z,96361.72
2023-01-27T01:42:51.836Z,96365.00
2023-01-27T01:45:53.882Z,96370.94
2023-01-27T01:48:35.039Z,96376.75
2023-01-27T01:51:08.433Z,96385.91
2023-01-27T01:53:38.566Z,96386.72
2023-01-27T01:56:12.494Z,96381.16
2023-01-27T02:01:16.124Z,96361.06
2023-01-27T02:03:47.985Z,96360.63
2023-01-27T02:06:16.468Z,96370.63
2023-01-27T02:08:46.813Z,96358.34
2023-01-27T02:11:17.049Z,96360.16
2023-01-27T02:13:45.661Z,96366.59
2023-01-27T02:16:14.337Z,96369.78
2023-01-27T02:18:42.966Z,96356.38
2023-01-27T02:21:11.614Z,96362.56
2023-01-27T02:23:51.569Z,96364.94
2023-01-27T02:26:23.118Z,96364.56
2023-01-27T02:28:56.219Z,96368.13
2023-01-27T02:31:25.120Z,96360.75
2023-01-27T02:33:55.156Z,96374.50
2023-01-27T02:36:23.512Z,96371.81
2023-01-27T02:38:53.987Z,96365.81
2023-01-27T02:41:27.153Z,96361.91
2023-01-27T02:43:55.830Z,96366.75
2023-01-27T02:46:24.350Z,96359.03
2023-01-27T02:48:52.762Z,96358.44
2023-01-27T02:51:21.207Z,96353.22
2023-01-27T02:53:49.565Z,96358.88
2023-01-27T02:56:17.944Z,96363.00
2023-01-27T02:58:47.675Z,96352.75
2023-01-27T03:01:16.097Z,96357.31
2023-01-27T03:03:47.373Z,96355.00
2023-01-27T03:06:19.155Z,96352.63
2023-01-27T03:08:47.455Z,96357.31
2023-01-27T03:11:35.771Z,96360.63
2023-01-27T03:14:05.646Z,96355.72
2023-01-27T03:16:51.709Z,96348.03
2023-01-27T03:19:20.394Z,96348.97
2023-01-27T03:21:51.277Z,96354.09
2023-01-27T03:24:19.715Z,96349.09
2023-01-27T03:26:48.012Z,96336.16
2023-01-27T03:29:35.735Z,96333.53
2023-01-27T03:32:04.609Z,96336.22
2023-01-27T03:34:32.924Z,96333.53
2023-01-27T03:37:18.776Z,96339.34
2023-01-27T03:40:04.943Z,96334.91
2023-01-27T03:42:50.744Z,96341.84
2023-01-27T03:45:38.108Z,96350.59
2023-01-27T03:48:06.761Z,96351.66
2023-01-27T03:50:38.292Z,96348.03
2023-01-27T03:53:07.151Z,96348.22
2023-01-27T03:55:37.027Z,96350.53
2023-01-27T03:58:18.150Z,96352.06
2023-01-27T04:00:50.817Z,96345.72
2023-01-27T04:03:36.713Z,96352.03
2023-01-27T04:06:23.176Z,96352.66
2023-01-27T04:08:51.559Z,96347.88
2023-01-27T04:11:37.562Z,96343.25
2023-01-27T04:14:07.123Z,96344.22
2023-01-27T04:16:37.724Z,96351.56
2023-01-27T04:19:06.252Z,96351.34
2023-01-27T04:21:34.715Z,96350.53
2023-01-27T04:24:03.820Z,96348.41
2023-01-27T04:26:34.588Z,96337.66
2023-01-27T04:29:03.628Z,96339.94
2023-01-27T04:31:32.823Z,96346.16
2023-01-27T04:34:02.668Z,96342.88
2023-01-27T04:36:30.930Z,96343.88
2023-01-27T04:38:59.254Z,96342.66
2023-01-27T04:41:28.024Z,96340.53
2023-01-27T04:43:56.412Z,96342.53
2023-01-27T04:46:24.693Z,96341.44
2023-01-27T04:48:53.028Z,96344.06
2023-01-27T04:51:22.636Z,96349.06
2023-01-27T04:53:50.907Z,96342.09
2023-01-27T04:56:24.579Z,96348.09
2023-01-27T04:58:53.016Z,96345.41
2023-01-27T05:01:21.572Z,96348.28
2023-01-27T05:03:50.217Z,96348.97
2023-01-27T05:06:18.483Z,96346.34
2023-01-27T05:08:48.321Z,96338.88
2023-01-27T05:11:16.954Z,96342.91
2023-01-27T05:13:45.558Z,96347.81
2023-01-27T05:16:15.736Z,96348.47
2023-01-27T05:18:44.867Z,96346.69
2023-01-27T05:21:14.506Z,96348.97
2023-01-27T05:23:42.815Z,96351.50
2023-01-27T05:26:14.203Z,96355.19
2023-01-27T05:28:44.032Z,96356.59
2023-01-27T05:31:14.178Z,96361.69
2023-01-27T05:33:43.714Z,96360.56
2023-01-27T05:36:13.457Z,96362.34
2023-01-27T05:38:42.173Z,96363.56
2023-01-27T05:41:13.147Z,96378.63
2023-01-27T05:43:43.653Z,96363.38
2023-01-27T05:46:13.479Z,96376.59
2023-01-27T05:48:43.479Z,96382.75
2023-01-27T05:51:14.682Z,96381.91
2023-01-27T05:53:43.604Z,96382.97
2023-01-27T05:56:16.996Z,96385.88
2023-01-27T05:58:45.573Z,96387.25
2023-01-27T06:01:15.439Z,96395.13
2023-01-27T06:03:44.155Z,96398.06
2023-01-27T06:06:13.587Z,96391.69
2023-01-27T06:08:42.324Z,96394.97
2023-01-27T06:11:10.927Z,96388.72
2023-01-27T06:13:40.643Z,96397.09
2023-01-27T06:16:10.866Z,96395.38
2023-01-27T06:18:39.989Z,96402.00
2023-01-27T06:21:09.791Z,96407.56
2023-01-27T06:23:38.764Z,96407.88
2023-01-27T06:26:09.353Z,96404.81
2023-01-27T06:28:37.471Z,96407.41
2023-01-27T06:31:08.040Z,96419.28
2023-01-27T06:33:36.200Z,96424.16
2023-01-27T06:36:06.024Z,96427.88
2023-01-27T06:38:34.312Z,96432.16
2023-01-27T06:41:02.855Z,96434.03
2023-01-27T06:43:31.168Z,96432.28
2023-01-27T06:45:59.555Z,96432.06
2023-01-27T06:48:29.790Z,96426.06
2023-01-27T06:50:58.530Z,96422.38
2023-01-27T06:53:26.888Z,96432.94
2023-01-27T06:55:58.572Z,96423.63
2023-01-27T06:58:26.822Z,96436.91
2023-01-27T07:00:55.156Z,96434.41
2023-01-27T07:03:23.421Z,96442.84
2023-01-27T07:05:54.050Z,96426.72
2023-01-27T07:08:22.111Z,96439.09
2023-01-27T07:10:50.302Z,96434.59
2023-01-27T07:13:18.839Z,96426.91
2023-01-27T07:15:47.633Z,96425.47
2023-01-27T07:18:15.883Z,96421.34
2023-01-27T07:20:44.792Z,96432.22
2023-01-27T07:23:14.484Z,96430.06
2023-01-27T07:25:44.773Z,96431.13
2023-01-27T07:28:13.136Z,96420.47
2023-01-27T07:30:41.463Z,96424.56
2023-01-27T07:33:11.224Z,96434.81
2023-01-27T07:35:41.181Z,96421.63
2023-01-27T07:38:09.859Z,96423.88
2023-01-27T07:40:39.483Z,96433.25
2023-01-27T07:43:07.767Z,96430.66
2023-01-27T07:45:36.207Z,96419.72
2023-01-27T07:48:06.237Z,96428.72
2023-01-27T07:50:34.866Z,96427.00
2023-01-27T07:53:04.167Z,96424.75
2023-01-27T07:55:33.757Z,96428.94
2023-01-27T07:58:04.702Z,96420.00
2023-01-27T08:00:33.666Z,96424.06
2023-01-27T08:03:02.529Z,96431.50
2023-01-27T08:05:34.172Z,96431.94
2023-01-27T08:08:04.643Z,96438.22
2023-01-27T08:10:32.767Z,96439.56
2023-01-27T08:13:00.984Z,96441.72
2023-01-27T08:15:30.678Z,96447.59
2023-01-27T08:17:59.957Z,96447.41
2023-01-27T08:20:28.930Z,96450.28
2023-01-27T08:22:57.323Z,96448.41
2023-01-27T08:25:25.748Z,96453.59
2023-01-27T08:27:55.076Z,96450.38
2023-01-27T08:30:24.256Z,96456.56
2023-01-27T08:32:53.963Z,96456.50
2023-01-27T08:35:22.339Z,96445.31
2023-01-27T08:37:51.665Z,96448.66
2023-01-27T08:40:20.107Z,96453.06
2023-01-27T08:42:51.085Z,96463.41
2023-01-27T08:45:19.451Z,96469.47
2023-01-27T08:47:47.750Z,96463.75
2023-01-27T08:50:18.557Z,96462.25
2023-01-27T08:52:46.836Z,96466.72
2023-01-27T08:55:15.514Z,96471.84
2023-01-27T08:57:43.769Z,96471.47
2023-01-27T09:00:14.218Z,96474.91
2023-01-27T09:02:42.593Z,96485.53
2023-01-27T09:05:11.342Z,96479.31
2023-01-27T09:07:41.395Z,96489.31
2023-01-27T09:10:15.297Z,96492.75
2023-01-27T09:12:44.586Z,96487.44
2023-01-27T09:15:13.522Z,96480.44
2023-01-27T09:17:42.106Z,96490.63
2023-01-27T09:20:12.041Z,96489.03
2023-01-27T09:22:42.814Z,96483.97
2023-01-27T09:25:15.246Z,96486.25
2023-01-27T09:27:43.616Z,96489.03
2023-01-27T09:30:13.756Z,96488.78
2023-01-27T09:32:42.643Z,96489.38
2023-01-27T09:35:11.671Z,96491.59
2023-01-27T09:37:43.793Z,96486.59
2023-01-27T09:40:18.353Z,96485.03
2023-01-27T09:42:55.709Z,96483.66
2023-01-27T09:45:44.821Z,96490.38
2023-01-27T09:48:33.814Z,96493.16
2023-01-27T09:51:06.617Z,96499.94
2023-01-27T09:54:04.127Z,96490.19
2023-01-27T09:56:47.837Z,96492.56
2023-01-27T09:59:27.756Z,96498.38
2023-01-27T10:02:02.935Z,96490.66
2023-01-27T10:04:47.607Z,96489.19
2023-01-27T10:07:27.019Z,96494.97
2023-01-27T10:10:07.474Z,96505.31
2023-01-27T10:12:48.985Z,96506.81
2023-01-27T10:15:26.835Z,96491.09
2023-01-27T10:18:02.078Z,96492.25
2023-01-27T10:20:35.695Z,96500.25
2023-01-27T10:23:14.422Z,96504.44
2023-01-27T10:25:54.410Z,96505.94
2023-01-27T10:28:24.339Z,96508.16
2023-01-27T10:30:57.175Z,96509.47
2023-01-27T10:33:35.979Z,96510.94
2023-01-27T10:36:07.912Z,96500.22
2023-01-27T10:38:39.852Z,96508.81
2023-01-27T10:41:19.143Z,96508.81
2023-01-27T10:43:56.449Z,96509.91
2023-01-27T10:46:32.054Z,96501.56
2023-01-27T10:49:05.152Z,96503.88
2023-01-27T10:51:36.548Z,96505.22
2023-01-27T10:54:08.690Z,96503.16
2023-01-27T10:56:42.707Z,96505.13
2023-01-27T10:59:16.291Z,96501.78
2023-01-27T11:01:47.898Z,96508.91
2023-01-27T11:04:20.156Z,96505.53
2023-01-27T11:06:49.142Z,96503.56
2023-01-27T11:09:26.522Z,96501.19
2023-01-27T11:11:59.280Z,96496.38
2023-01-27T11:14:29.239Z,96498.28
2023-01-27T11:17:02.019Z,96503.38
2023-01-27T11:19:36.385Z,96510.28
2023-01-27T11:22:09.080Z,96500.63
2023-01-27T11:24:44.998Z,96504.53
2023-01-27T11:27:23.565Z,96508.34
2023-01-27T11:29:56.335Z,96502.66
2023-01-27T11:32:34.866Z,96502.00
2023-01-27T11:35:05.230Z,96492.59
2023-01-27T11:37:36.267Z,96495.59
2023-01-27T11:40:06.495Z,96493.19
2023-01-27T11:42:36.435Z,96486.91
2023-01-27T11:45:05.589Z,96493.72
2023-01-27T11:47:38.397Z,96494.44
2023-01-27T11:50:08.148Z,96487.28
2023-01-27T11:52:36.435Z,96485.06
2023-01-27T11:55:07.806Z,96484.47
2023-01-27T11:57:42.824Z,96485.75
2023-01-27T12:00:20.263Z,96488.88
2023-01-27T12:02:55.182Z,96484.66
2023-01-27T12:05:29.906Z,96475.00
2023-01-27T12:08:00.753Z,96476.16
2023-01-27T12:10:31.708Z,96466.66
2023-01-27T12:13:03.203Z,96465.53
2023-01-27T12:15:32.867Z,96469.97
2023-01-27T12:18:03.134Z,96465.03
2023-01-27T12:20:34.122Z,96471.03
2023-01-27T12:23:06.093Z,96471.63
2023-01-27T12:25:43.262Z,96466.13
2023-01-27T12:28:22.654Z,96459.53
2023-01-27T12:30:52.359Z,96468.06
2023-01-27T12:33:25.073Z,96463.88
2023-01-27T12:35:53.704Z,96465.69
2023-01-27T12:38:23.972Z,96465.75
2023-01-27T12:40:57.915Z,96457.91
2023-01-27T12:43:27.701Z,96455.56
2023-01-27T12:46:07.873Z,96462.59
2023-01-27T12:48:46.091Z,96457.47
2023-01-27T12:51:16.954Z,96450.44
2023-01-27T12:53:45.283Z,96458.19
2023-01-27T12:56:15.067Z,96460.38
2023-01-27T12:58:46.114Z,96460.81
2023-01-27T13:01:25.151Z,96456.97
2023-01-27T13:03:56.658Z,96455.69
2023-01-27T13:06:32.407Z,96456.44
2023-01-27T13:09:01.506Z,96452.91
2023-01-27T13:11:38.374Z,96453.63
2023-01-27T13:14:10.695Z,96453.63
2023-01-27T13:16:39.387Z,96455.88
2023-01-27T13:19:17.600Z,96442.59
2023-01-27T13:21:49.582Z,96445.25
2023-01-27T13:24:23.482Z,96443.84
2023-01-27T13:26:53.305Z,96444.44
2023-01-27T13:29:27.233Z,96437.69
2023-01-27T13:31:58.936Z,96442.47
2023-01-27T13:34:34.541Z,96449.88
2023-01-27T13:37:07.619Z,96445.69
2023-01-27T13:39:46.507Z,96443.81
2023-01-27T13:42:19.880Z,96446.09
2023-01-27T13:44:52.878Z,96447.94
2023-01-27T13:47:24.718Z,96451.22
2023-01-27T13:49:56.925Z,96446.13
2023-01-27T13:52:25.759Z,96452.19
2023-01-27T13:54:54.415Z,96457.94
2023-01-27T13:57:55.552Z,96464.09
2023-01-27T14:00:28.538Z,96468.50
2023-01-27T14:03:21.473Z,96473.94
2023-01-27T14:05:59.363Z,96465.53
2023-01-27T14:08:50.658Z,96458.13
2023-01-27T14:11:25.601Z,96458.06
2023-01-27T14:14:29.160Z,96450.09
2023-01-27T14:17:17.718Z,96458.34
2023-01-27T14:19:52.673Z,96442.41
2023-01-27T14:22:28.012Z,96451.00
2023-01-27T14:25:02.113Z,96452.25
2023-01-27T14:27:33.369Z,96456.19
2023-01-27T14:30:07.628Z,96459.94
2023-01-27T14:32:42.963Z,96461.34
2023-01-27T14:35:27.002Z,96456.56
2023-01-27T14:38:05.713Z,96453.09
2023-01-27T14:40:39.112Z,96463.84
2023-01-27T14:43:15.096Z,96470.72
2023-01-27T14:45:47.013Z,96473.25
2023-01-27T14:48:26.419Z,96473.81
2023-01-27T14:51:00.907Z,96485.63
2023-01-27T14:53:41.133Z,96490.09
2023-01-27T14:56:13.627Z,96499.19
2023-01-27T14:58:47.914Z,96491.34
2023-01-27T15:01:25.137Z,96488.03
2023-01-27T15:04:28.527Z,96496.19
2023-01-27T15:07:02.018Z,96498.47
2023-01-27T15:09:42.057Z,96499.34
2023-01-27T15:12:26.151Z,96500.34
2023-01-27T15:15:18.156Z,96502.47
2023-01-27T15:17:56.467Z,96504.88
2023-01-27T15:20:40.345Z,96510.84
2023-01-27T15:23:24.661Z,96500.22
2023-01-27T15:25:54.629Z,96508.78
2023-01-27T15:28:27.060Z,96517.47
2023-01-27T15:31:10.772Z,96515.44
2023-01-27T15:34:17.951Z,96513.22
2023-01-27T15:37:04.469Z,96521.75
2023-01-27T15:39:41.608Z,96520.94
2023-01-27T15:42:12.899Z,96526.53
2023-01-27T15:44:43.230Z,96525.44
2023-01-27T15:47:13.949Z,96527.97
2023-01-27T15:49:45.700Z,96523.25
2023-01-27T15:52:26.377Z,96532.00
2023-01-27T15:54:56.794Z,96533.94
2023-01-27T15:57:28.595Z,96524.59
2023-01-27T16:00:01.117Z,96527.44
2023-01-27T16:02:31.141Z,96528.13
2023-01-27T16:05:07.031Z,96528.03
2023-01-27T16:07:37.581Z,96533.66
2023-01-27T16:10:14.547Z,96527.88
2023-01-27T16:12:48.343Z,96526.88
2023-01-27T16:15:39.023Z,96535.91
2023-01-27T16:18:22.478Z,96535.13
2023-01-27T16:20:53.367Z,96536.28
2023-01-27T16:23:30.984Z,96538.44
2023-01-27T16:26:16.827Z,96534.84
2023-01-27T16:28:50.399Z,96539.31
2023-01-27T16:31:21.167Z,96535.84
2023-01-27T16:33:53.212Z,96540.22
2023-01-27T16:36:25.536Z,96540.63
2023-01-27T16:38:54.196Z,96540.13
2023-01-27T16:41:28.040Z,96544.41
2023-01-27T16:44:01.146Z,96541.28
2023-01-27T16:46:33.688Z,96547.13
2023-01-27T16:49:04.801Z,96544.41
2023-01-27T16:51:34.951Z,96549.22
2023-01-27T16:54:03.597Z,96546.97
2023-01-27T16:56:36.135Z,96555.63
2023-01-27T16:59:06.179Z,96551.66
2023-01-27T17:01:38.986Z,96548.84
2023-01-27T17:04:19.378Z,96545.66
2023-01-27T17:06:49.393Z,96550.09
2023-01-27T17:09:22.879Z,96550.50
2023-01-27T17:11:53.700Z,96549.19
2023-01-27T17:14:31.663Z,96552.03
2023-01-27T17:17:02.561Z,96543.94
2023-01-27T17:19:31.509Z,96559.28
2023-01-27T17:22:01.287Z,96553.63
2023-01-27T17:24:31.625Z,96565.19
2023-01-27T17:27:03.632Z,96564.78
2023-01-27T17:29:34.644Z,96574.25
2023-01-27T17:32:03.236Z,96579.56
2023-01-27T17:34:31.642Z,96584.03
2023-01-27T17:37:07.034Z,96574.19
2023-01-27T17:39:36.039Z,96591.66
2023-01-27T17:42:06.262Z,96575.22
2023-01-27T17:44:34.678Z,96589.41
2023-01-27T17:47:03.159Z,96581.25
2023-01-27T17:49:31.996Z,96576.38
2023-01-27T17:52:02.424Z,96590.69
2023-01-27T17:54:33.389Z,96591.66
2023-01-27T17:57:09.224Z,96591.41
2023-01-27T17:59:39.768Z,96594.88
2023-01-27T18:02:09.023Z,96594.09
2023-01-27T18:04:41.003Z,96597.00
2023-01-27T18:07:10.962Z,96605.22
2023-01-27T18:09:45.125Z,96603.28
2023-01-27T18:12:31.160Z,96598.88
2023-01-27T18:14:59.564Z,96611.97
2023-01-27T18:17:28.130Z,96607.16
2023-01-27T18:19:57.535Z,96615.06
2023-01-27T18:22:27.125Z,96611.31
2023-01-27T18:24:56.860Z,96620.00
2023-01-27T18:27:29.580Z,96627.44
2023-01-27T18:30:02.790Z,96621.31
2023-01-27T18:32:40.224Z,96630.59
2023-01-27T18:35:25.327Z,96630.38
2023-01-27T18:37:56.860Z,96631.63
2023-01-27T18:40:30.417Z,96625.44
2023-01-27T18:43:00.253Z,96633.59
2023-01-27T18:45:28.896Z,96633.75
2023-01-27T18:47:59.399Z,96630.59
2023-01-27T18:50:27.813Z,96630.56
2023-01-27T18:52:56.210Z,96635.56
2023-01-27T18:55:26.687Z,96634.78
2023-01-27T18:57:55.513Z,96634.34
2023-01-27T19:00:26.782Z,96635.63
2023-01-27T19:02:59.060Z,96623.53
2023-01-27T19:05:28.431Z,96628.97
2023-01-27T19:07:56.944Z,96632.41
2023-01-27T19:10:28.314Z,96624.88
2023-01-27T19:12:58.372Z,96623.63
2023-01-27T19:15:30.049Z,96622.75
2023-01-27T19:17:59.736Z,96622.38
2023-01-27T19:20:29.850Z,96618.72
2023-01-27T19:22:59.519Z,96618.53
2023-01-27T19:25:30.634Z,96623.72
2023-01-27T19:28:03.581Z,96623.75
2023-01-27T19:30:36.280Z,96621.47
2023-01-27T19:33:05.407Z,96617.16
2023-01-27T19:35:33.639Z,96615.06
2023-01-27T19:38:03.966Z,96624.94
2023-01-27T19:40:32.946Z,96629.91
2023-01-27T19:43:01.225Z,96626.53
2023-01-27T19:45:29.609Z,96635.00
2023-01-27T19:48:01.075Z,96633.44
2023-01-27T19:50:30.689Z,96637.88
2023-01-27T19:52:59.300Z,96646.69
2023-01-27T19:55:27.651Z,96642.16
2023-01-27T19:57:55.906Z,96642.88
2023-01-27T20:00:27.936Z,96643.66
2023-01-27T20:02:56.237Z,96650.31
2023-01-27T20:05:27.440Z,96651.66
2023-01-27T20:07:56.738Z,96647.13
2023-01-27T20:10:26.633Z,96643.53
2023-01-27T20:12:56.873Z,96648.34
2023-01-27T20:15:25.951Z,96647.84
2023-01-27T20:17:54.449Z,96645.81
2023-01-27T20:20:23.208Z,96650.50
2023-01-27T20:22:53.880Z,96654.00
2023-01-27T20:25:24.732Z,96655.78
2023-01-27T20:27:54.763Z,96657.81
2023-01-27T20:30:25.515Z,96655.84
2023-01-27T20:32:55.909Z,96658.72
2023-01-27T20:35:24.950Z,96660.72
2023-01-27T20:37:55.336Z,96656.34
2023-01-27T20:40:25.377Z,96661.69
2023-01-27T20:42:53.699Z,96660.25
2023-01-27T20:45:22.492Z,96676.44
2023-01-27T20:47:51.540Z,96669.88
2023-01-27T20:50:20.100Z,96665.69
2023-01-27T20:52:48.820Z,96661.66
2023-01-27T20:55:19.645Z,96664.50
2023-01-27T20:57:48.758Z,96662.59
2023-01-27T21:00:19.265Z,96673.13
2023-01-27T21:02:48.191Z,96672.81
2023-01-27T21:05:16.860Z,96680.25
2023-01-27T21:07:45.404Z,96682.94
2023-01-27T21:10:13.678Z,96681.88
2023-01-27T21:12:43.305Z,96682.63
2023-01-27T21:15:12.566Z,96677.00
2023-01-27T21:17:41.445Z,96681.00
2023-01-27T21:20:10.987Z,96679.22
2023-01-27T21:22:39.254Z,96683.53
2023-01-27T21:25:08.116Z,96683.81
2023-01-27T21:27:36.398Z,96679.53
2023-01-27T21:30:07.059Z,96681.69
2023-01-27T21:32:35.304Z,96677.50
2023-01-27T21:35:03.593Z,96687.03
2023-01-27T21:37:31.888Z,96683.22
2023-01-27T21:40:00.164Z,96699.59
2023-01-27T21:42:46.126Z,96694.34
2023-01-27T21:45:16.584Z,96704.06
2023-01-27T21:47:45.112Z,96695.78
2023-01-27T21:50:14.953Z,96698.59
2023-01-27T21:52:45.620Z,96698.63
2023-01-27T21:55:14.982Z,96693.84
2023-01-27T21:57:45.558Z,96698.41
2023-01-27T22:00:17.130Z,96694.56
2023-01-27T22:02:45.642Z,96697.88
2023-01-27T22:05:14.267Z,96695.91
2023-01-27T22:07:42.769Z,96697.81
2023-01-27T22:10:15.534Z,96699.47
2023-01-27T22:12:43.957Z,96700.22
2023-01-27T22:15:15.967Z,96691.47
2023-01-27T22:17:44.854Z,96690.13
2023-01-27T22:20:14.206Z,96692.72
2023-01-27T22:22:42.643Z,96692.66
2023-01-27T22:25:11.667Z,96700.75
2023-01-27T22:27:41.502Z,96686.88
2023-01-27T22:30:11.055Z,96684.03
2023-01-27T22:32:40.959Z,96688.09
2023-01-27T22:35:10.149Z,96689.13
2023-01-27T22:37:38.724Z,96685.97
2023-01-27T22:40:08.814Z,96691.28
2023-01-27T22:42:39.876Z,96686.59
2023-01-27T22:45:09.689Z,96686.72
2023-01-27T22:47:38.130Z,96681.66
2023-01-27T22:50:09.065Z,96676.34
2023-01-27T22:52:37.733Z,96680.75
2023-01-27T22:55:06.635Z,96674.47
2023-01-27T22:57:34.991Z,96668.69
2023-01-27T23:00:03.636Z,96682.19
2023-01-27T23:02:31.983Z,96672.94
2023-01-27T23:05:00.470Z,96668.00
2023-01-27T23:07:30.112Z,96676.41
2023-01-27T23:09:58.409Z,96680.59
2023-01-27T23:12:26.651Z,96680.75
2023-01-27T23:14:54.893Z,96683.63
2023-01-27T23:17:23.164Z,96678.47
2023-01-27T23:19:51.405Z,96674.63
2023-01-27T23:22:19.720Z,96676.13
2023-01-27T23:24:49.304Z,96680.31
2023-01-27T23:27:17.744Z,96675.75
2023-01-27T23:29:45.986Z,96666.84
2023-01-27T23:32:14.281Z,96672.06
2023-01-27T23:34:42.534Z,96674.25
2023-01-27T23:37:10.839Z,96676.63
2023-01-27T23:39:39.068Z,96671.63
2023-01-27T23:42:08.779Z,96671.44
2023-01-27T23:44:37.022Z,96672.69
2023-01-27T23:47:05.282Z,96681.69
2023-01-27T23:49:33.561Z,96687.00
2023-01-27T23:52:01.843Z,96678.22
2023-01-27T23:54:30.128Z,96680.22
2023-01-27T23:56:58.356Z,96680.91
2023-01-27T23:59:28.028Z,96674.19
